KEDN

Enterprise Municipal Airport

Enterprise, Alabama, USA
METAR KEDN 212155Z AUTO 23003KT 10SM CLR 30/24 A2988 RMK AO2 LTG DSNT S T03020239
Observed Flight Rules
Jun-21 @ 21:55 UTC (12 minutes ago) Visual Flight Rules
Wind Visibility Clouds
230° at 3 knots 10 miles
  • Clear skies
Temperatures Readings
Current 30°C / 86°F
Dewpoint 24°C / 75°F
Humidity 70%
Altimeter 29.88" Hg
Pressure 1012 hPa
Elevation 110
METAR KEDN 212155Z AUTO 23003KT 10SM CLR 30/24 A2988 RMK AO2 LTG DSNT S T03020239
Observed Flight Rules
Jun-21 @ 21:55 UTC
(12 minutes ago)
VFR
Wind Visibility
230° at 3 knots 10 miles
Clouds
  • Clear skies
Temperature Dewpoint
30°C / 86°F 24°C / 75°F
Humidity Altimeter Pressure
70% 29.88" Hg 1012 hPa